.
WxDataArchive / Data Records for 2013-05-21
2013-05-20 May 2013 2013-05-22

Data Records for Tuesday, 21 May 2013

Time	Temp	Chill	HIndex	Humid	Dewpt	 Wind 	HiWind	WindDir	Rain 	Barom 
-----	----	-----	------	-----	-----	------	------	-------	-----	----- 
00:00	73.9	73.9	73.9	69	63.1	0	0	---	0.00	29.806 
00:05	73.7	73.7	73.7	70	63.3	0	0	---	0.00	29.806 
00:10	73.5	73.5	73.5	70	63.1	0	0	---	0.00	29.806 
00:15	73.5	73.5	73.5	71	63.5	0	2	270	0.00	29.800 
00:20	73.5	73.5	73.5	71	63.5	0	1	270	0.00	29.800 
00:25	73.5	73.5	73.5	71	63.5	0	1	270	0.00	29.800 
00:30	73.3	73.3	73.3	71	63.3	0	1	270	0.00	29.803 
00:35	73.3	73.3	73.3	72	63.7	0	0	---	0.00	29.803 
00:40	73.2	73.2	73.2	72	63.6	0	0	---	0.00	29.803 
00:45	73.2	73.2	73.2	72	63.6	0	1	270	0.00	29.793 
00:50	73.3	73.3	73.3	72	63.7	0	1	270	0.00	29.793 
00:55	73.5	73.5	73.5	72	63.9	0	3	270	0.00	29.793 
01:00	73.7	73.7	73.7	71	63.7	0	3	112	0.00	29.783 
01:05	73.9	73.9	73.9	71	63.9	0	2	112	0.00	29.783 
01:10	73.9	73.9	73.9	71	63.9	0	1	112	0.00	29.783 
01:15	73.9	73.9	73.9	72	64.3	0	1	112	0.00	29.783 
01:20	73.9	73.9	73.9	72	64.3	0	1	112	0.00	29.783 
01:25	73.7	73.7	73.7	72	64.1	0	1	112	0.00	29.783 
01:30	73.7	73.7	73.7	73	64.5	0	1	112	0.00	29.800 
01:35	73.5	73.5	73.5	73	64.3	0	1	112	0.00	29.800 
01:40	73.3	73.3	73.3	74	64.5	0	1	112	0.00	29.800 
01:45	73.5	73.5	73.5	74	64.7	0	2	112	0.00	29.797 
01:50	73.5	73.5	73.5	74	64.7	0	2	112	0.00	29.797 
01:55	73.7	73.7	73.7	74	64.9	0	2	112	0.00	29.797 
02:00	73.9	73.9	73.9	74	65.1	0	5	248	0.00	29.797 
02:05	73.9	73.9	73.9	74	65.1	0	2	248	0.00	29.797 
02:10	73.9	73.9	73.9	74	65.1	0	2	248	0.00	29.797 
02:15	73.9	73.9	73.9	74	65.1	1	3	248	0.00	29.787 
02:20	73.9	73.9	73.9	74	65.1	0	1	248	0.00	29.787 
02:25	73.7	73.7	73.7	74	64.9	0	3	248	0.00	29.787 
02:30	73.7	73.7	73.7	74	64.9	0	2	248	0.00	29.781 
02:35	73.7	73.7	73.7	74	64.9	0	1	248	0.00	29.781 
02:40	73.9	73.9	73.9	74	65.1	0	2	248	0.00	29.781 
02:45	73.9	73.9	73.9	74	65.1	0	6	270	0.00	29.776 
02:50	73.9	73.9	73.9	74	65.1	0	2	270	0.00	29.776 
02:55	73.9	73.9	73.9	74	65.1	0	3	270	0.00	29.776 
03:00	73.9	73.9	73.9	75	65.5	0	1	45	0.00	29.765 
03:05	73.9	73.9	73.9	75	65.5	0	2	45	0.00	29.765 
03:10	73.9	73.9	73.9	75	65.5	0	2	45	0.00	29.765 
03:15	73.7	73.7	73.7	75	65.3	0	2	270	0.00	29.760 
03:20	73.7	73.7	73.7	75	65.3	0	2	270	0.00	29.760 
03:25	73.7	73.7	73.7	75	65.3	0	2	270	0.00	29.760 
03:30	73.7	73.7	73.7	76	65.6	0	2	270	0.00	29.749 
03:35	73.5	73.5	73.5	76	65.5	0	3	270	0.00	29.749 
03:40	73.5	73.5	73.5	76	65.5	0	4	68	0.00	29.749 
03:45	73.5	73.5	73.5	76	65.5	0	3	248	0.00	29.748 
03:50	73.5	73.5	73.5	76	65.5	0	2	248	0.00	29.748 
03:55	73.5	73.5	73.5	76	65.5	0	3	248	0.00	29.748 
04:00	73.5	73.5	73.5	76	65.5	0	2	248	0.00	29.748 
04:05	73.7	73.7	73.7	76	65.6	0	2	248	0.00	29.748 
04:10	73.7	73.7	73.7	76	65.6	0	2	270	0.00	29.748 
04:15	73.5	73.5	73.5	76	65.5	0	3	270	0.00	29.749 
04:20	73.5	73.5	73.5	76	65.5	0	2	68	0.00	29.749 
04:25	73.5	73.5	73.5	77	65.8	0	3	68	0.00	29.749 
04:30	73.5	73.5	73.5	77	65.8	0	3	270	0.00	29.749 
04:35	73.5	73.5	73.5	77	65.8	0	3	270	0.00	29.749 
04:40	73.5	73.5	73.5	77	65.8	0	3	248	0.00	29.749 
04:45	73.5	73.5	73.5	77	65.8	0	1	248	0.00	29.755 
04:50	73.5	73.5	73.5	77	65.8	1	3	248	0.00	29.755 
04:55	73.7	73.7	73.7	77	66.0	1	5	248	0.00	29.755 
05:00	73.7	73.7	73.7	77	66.0	0	3	248	0.00	29.755 
05:05	73.9	73.9	73.9	77	66.2	1	3	248	0.00	29.755 
05:10	73.9	73.9	73.9	76	65.8	1	4	270	0.00	29.755 
05:15	73.9	73.9	73.9	76	65.8	1	2	292	0.00	29.754 
05:20	73.9	73.9	73.9	75	65.5	1	3	292	0.00	29.754 
05:25	73.9	73.9	73.9	74	65.1	1	3	270	0.00	29.754 
05:30	73.9	73.9	73.9	74	65.1	0	3	270	0.00	29.745 
05:35	73.7	73.7	73.7	74	64.9	0	1	248	0.00	29.745 
05:40	73.3	73.3	73.3	74	64.5	0	1	248	0.00	29.745 
05:45	73.0	73.0	73.0	73	63.8	0	1	248	0.00	29.752 
05:50	72.5	72.5	72.5	74	63.7	1	4	248	0.00	29.752 
05:55	71.8	71.8	71.8	75	63.4	1	3	248	0.00	29.752 
06:00	71.3	71.3	71.3	77	63.7	1	4	270	0.00	29.763 
06:05	70.8	70.8	70.8	77	63.2	1	4	270	0.00	29.763 
06:10	70.3	70.3	70.3	78	63.1	1	4	270	0.00	29.763 
06:15	69.9	69.9	69.9	78	62.7	1	3	270	0.00	29.752 
06:20	69.6	69.6	69.6	79	62.8	0	1	270	0.00	29.752 
06:25	69.4	69.4	69.4	79	62.6	0	1	270	0.00	29.752 
06:30	69.3	69.3	69.3	80	62.9	0	1	270	0.00	29.745 
06:35	69.1	69.1	69.1	80	62.7	0	0	---	0.00	29.745 
06:40	68.9	68.9	68.9	80	62.5	0	0	---	0.00	29.745 
06:45	68.8	68.8	68.8	80	62.4	0	0	---	0.00	29.750 
06:50	68.6	68.6	68.6	80	62.2	0	1	270	0.00	29.750 
06:55	68.3	68.3	68.3	81	62.2	0	1	270	0.00	29.750 
07:00	68.3	68.3	68.3	81	62.2	0	1	270	0.00	29.764 
07:05	68.1	68.1	68.1	81	62.0	0	1	270	0.00	29.764 
07:10	67.9	67.9	67.9	82	62.2	0	1	270	0.00	29.764 
07:15	68.1	68.1	68.1	81	62.0	1	4	292	0.00	29.777 
07:20	68.3	68.3	68.3	81	62.2	0	2	292	0.00	29.777 
07:25	68.3	68.3	68.3	81	62.2	0	2	292	0.00	29.777 
07:30	68.4	68.4	68.4	81	62.3	0	1	292	0.00	29.785 
07:35	68.6	68.6	68.6	80	62.2	0	3	292	0.00	29.785 
07:40	68.8	68.8	68.8	79	62.0	1	4	292	0.00	29.785 
07:45	68.9	68.9	68.9	79	62.1	1	2	292	0.00	29.790 
07:50	69.1	69.1	69.1	78	61.9	0	2	292	0.00	29.790 
07:55	69.4	69.4	69.4	77	61.9	1	5	292	0.00	29.790 
08:00	69.6	69.6	69.6	76	61.7	1	3	292	0.00	29.790 
08:05	69.6	69.6	69.6	75	61.3	1	4	292	0.00	29.790 
08:10	69.8	69.8	69.8	74	61.1	1	4	270	0.00	29.790 
08:15	70.1	70.1	70.1	73	61.0	1	3	270	0.00	29.801 
08:20	70.4	70.4	70.4	72	60.9	1	3	270	0.00	29.801 
08:25	70.8	70.8	70.8	70	60.5	1	4	270	0.00	29.801 
08:30	70.9	70.9	70.9	70	60.6	1	4	292	0.00	29.798 
08:35	71.3	71.3	71.3	68	60.2	1	4	248	0.00	29.798 
08:40	71.8	71.8	71.8	66	59.8	1	7	248	0.00	29.798 
08:45	72.1	72.1	72.1	66	60.1	1	3	270	0.00	29.802 
08:50	72.5	72.5	72.5	64	59.6	2	6	315	0.00	29.802 
08:55	72.3	72.3	72.3	65	59.9	2	6	270	0.00	29.802 
09:00	72.0	72.0	72.0	66	60.0	1	4	292	0.00	29.800 
09:05	71.8	71.8	71.8	66	59.8	1	5	270	0.00	29.800 
09:10	71.8	71.8	71.8	65	59.4	2	5	270	0.00	29.800 
09:15	71.8	71.8	71.8	66	59.8	1	4	292	0.00	29.802 
09:20	71.5	71.5	71.5	66	59.5	1	3	270	0.00	29.802 
09:25	71.3	71.3	71.3	66	59.3	1	3	68	0.00	29.802 
09:30	71.3	71.3	71.3	67	59.8	0	3	45	0.00	29.804 
09:35	71.3	71.3	71.3	67	59.8	1	5	248	0.00	29.804 
09:40	71.3	71.3	71.3	67	59.8	0	2	248	0.00	29.804 
09:45	71.5	71.5	71.5	66	59.5	1	4	248	0.00	29.806 
09:50	71.5	71.5	71.5	65	59.1	1	4	248	0.00	29.806 
09:55	71.5	71.5	71.5	66	59.5	1	3	270	0.00	29.806 
10:00	71.5	71.5	71.5	65	59.1	1	5	270	0.00	29.801 
10:05	71.5	71.5	71.5	66	59.5	1	5	292	0.00	29.801 
10:10	71.5	71.5	71.5	66	59.5	1	6	90	0.00	29.801 
10:15	71.3	71.3	71.3	67	59.8	0	3	90	0.00	29.785 
10:20	71.3	71.3	71.3	67	59.8	1	3	270	0.00	29.785 
10:25	71.3	71.3	71.3	68	60.2	1	4	248	0.00	29.785 
10:30	71.5	71.5	71.5	68	60.4	0	2	248	0.00	29.774 
10:35	71.8	71.8	71.8	69	61.1	0	2	248	0.00	29.774 
10:40	72.3	72.3	72.3	67	60.7	1	3	248	0.00	29.774 
10:45	72.8	72.8	72.8	68	61.6	0	2	248	0.00	29.768 
10:50	73.3	73.3	73.3	66	61.2	0	2	248	0.00	29.768 
10:55	73.7	73.7	73.7	64	60.7	0	2	248	0.00	29.768 
11:00	74.2	74.2	74.2	63	60.8	1	3	248	0.00	29.770 
11:05	74.9	74.9	74.9	63	61.4	1	3	248	0.00	29.770 
11:10	75.8	75.8	77.8	61	61.4	0	3	248	0.00	29.770 
11:15	76.5	76.5	78.4	60	61.6	1	3	248	0.00	29.772 
11:20	77.2	77.2	78.9	60	62.2	1	4	112	0.00	29.772 
11:25	77.4	77.4	79.1	58	61.4	2	5	90	0.00	29.772 
11:30	77.7	77.7	79.4	59	62.2	2	6	90	0.00	29.764 
11:35	78.3	78.3	79.9	58	62.3	1	2	90	0.00	29.764 
11:40	78.8	78.8	80.2	56	61.8	1	4	270	0.00	29.764 
11:45	79.2	79.2	80.4	54	61.1	1	3	270	0.00	29.764 
11:50	79.4	79.4	80.5	52	60.2	1	4	45	0.00	29.764 
11:55	79.8	79.8	80.7	51	60.0	1	4	270	0.00	29.764 
12:00	79.6	79.6	80.4	49	58.7	2	5	270	0.00	29.770 
12:05	78.8	78.8	79.8	50	58.6	2	9	248	0.00	29.770 
12:10	78.3	78.3	79.4	50	58.1	1	6	248	0.00	29.770 
12:15	77.9	77.9	79.2	50	57.7	1	4	248	0.00	29.768 
12:20	77.4	77.4	78.9	51	57.8	1	9	225	0.00	29.768 
12:25	77.2	77.2	78.7	51	57.6	1	3	248	0.00	29.768 
12:30	77.4	77.4	78.9	53	58.9	1	5	248	0.00	29.772 
12:35	77.6	77.6	79.0	52	58.6	2	5	270	0.00	29.772 
12:40	77.7	77.7	79.1	52	58.6	2	4	270	0.00	29.772 
12:45	78.3	78.3	79.6	53	59.7	1	4	270	0.00	29.769 
12:50	79.0	79.0	80.1	52	59.8	2	5	270	0.00	29.769 
12:55	79.4	79.4	80.5	52	60.2	2	4	248	0.00	29.769 
13:00	79.8	79.8	80.7	51	60.0	2	5	270	0.00	29.768 
13:05	80.1	80.1	80.8	49	59.2	2	6	270	0.00	29.768 
13:10	80.7	80.7	81.6	51	60.9	1	3	270	0.00	29.768 
13:15	80.9	80.9	81.4	48	59.3	3	7	270	0.00	29.755 
13:20	81.2	81.2	81.6	47	59.0	2	5	270	0.00	29.755 
13:25	81.6	81.6	82.1	48	60.0	1	4	248	0.00	29.755 
13:30	82.2	82.2	82.7	48	60.5	2	5	292	0.00	29.750 
13:35	82.4	82.4	82.6	46	59.5	2	4	270	0.00	29.750 
13:40	82.4	82.4	82.5	45	58.9	2	4	248	0.00	29.750 
13:45	82.6	82.6	82.5	44	58.4	2	6	270	0.00	29.751 
13:50	82.8	82.8	82.9	45	59.3	2	6	270	0.00	29.751 
13:55	82.8	82.8	82.7	44	58.6	2	6	248	0.00	29.751 
14:00	82.6	82.6	82.7	45	59.1	3	10	270	0.00	29.742 
14:05	82.6	82.6	82.7	45	59.1	2	5	270	0.00	29.742 
14:10	82.6	82.6	82.5	44	58.4	2	5	270	0.00	29.742 
14:15	83.0	83.0	82.9	44	58.8	2	6	270	0.00	29.738 
14:20	83.4	83.4	83.2	43	58.5	2	5	270	0.00	29.738 
14:25	83.8	83.8	83.7	44	59.5	2	4	270	0.00	29.738 
14:30	84.3	84.3	83.9	42	58.7	2	6	270	0.00	29.730 
14:35	84.7	84.7	84.4	42	59.0	1	5	248	0.00	29.730 
14:40	84.9	84.9	84.4	41	58.5	2	4	225	0.00	29.730 
14:45	84.9	84.9	84.4	41	58.5	2	5	292	0.00	29.727 
14:50	84.9	84.9	84.0	39	57.1	2	4	225	0.00	29.727 
14:55	85.1	85.1	84.3	39	57.3	1	6	270	0.00	29.727 
15:00	85.1	85.1	84.3	39	57.3	2	6	270	0.00	29.732 
15:05	85.3	85.3	84.3	38	56.8	2	5	270	0.00	29.732 
15:10	85.3	85.3	84.3	38	56.8	2	5	270	0.00	29.732 
15:15	85.1	85.1	84.1	38	56.6	3	7	270	0.00	29.734 
15:20	84.9	84.9	83.9	38	56.4	2	5	248	0.00	29.734 
15:25	84.5	84.5	83.6	39	56.8	2	5	270	0.00	29.734 
15:30	84.7	84.7	84.0	40	57.7	2	4	248	0.00	29.731 
15:35	84.9	84.9	84.4	41	58.5	1	5	270	0.00	29.731 
15:40	85.3	85.3	84.8	41	58.9	1	3	270	0.00	29.731 
15:45	86.1	86.1	85.4	39	58.2	2	5	248	0.00	29.729 
15:50	86.7	86.7	85.6	37	57.3	2	5	248	0.00	29.729 
15:55	86.3	86.3	85.0	36	56.2	3	6	248	0.00	29.729 
16:00	85.9	85.9	84.9	38	57.3	1	4	270	0.00	29.731 
16:05	86.3	86.3	85.2	37	56.9	2	4	248	0.00	29.731 
16:10	86.3	86.3	85.0	36	56.2	1	4	248	0.00	29.731 
16:15	86.7	86.7	85.4	36	56.5	1	6	270	0.00	29.722 
16:20	86.3	86.3	85.0	36	56.2	2	12	248	0.00	29.722 
16:25	85.9	85.9	84.7	37	56.6	2	5	270	0.00	29.722 
16:30	86.1	86.1	84.8	36	56.0	3	9	270	0.00	29.721 
16:35	86.3	86.3	84.8	35	55.4	1	5	292	0.00	29.721 
16:40	86.5	86.5	85.0	35	55.6	2	6	270	0.00	29.721 
16:45	86.7	86.7	85.4	36	56.5	2	5	248	0.00	29.714 
16:50	86.7	86.7	85.2	35	55.7	2	5	270	0.00	29.714 
16:55	87.0	87.0	85.6	35	56.0	2	7	248	0.00	29.714 
17:00	87.2	87.2	85.6	34	55.4	2	7	248	0.00	29.710 
17:05	87.2	87.2	85.8	35	56.2	2	6	270	0.00	29.710 
17:10	87.2	87.2	86.0	36	57.0	2	7	270	0.00	29.710 
17:15	87.2	87.2	86.2	37	57.7	1	4	270	0.00	29.705 
17:20	87.2	87.2	86.4	38	58.5	1	4	270	0.00	29.705 
17:25	86.5	86.5	85.8	39	58.6	1	6	292	0.00	29.705 
17:30	85.9	85.9	84.9	38	57.3	1	3	270	0.00	29.707 
17:35	85.1	85.1	84.3	39	57.3	1	5	270	0.00	29.707 
17:40	84.7	84.7	83.8	39	57.0	1	6	248	0.00	29.707 
17:45	84.5	84.5	83.6	39	56.8	2	6	248	0.00	29.709 
17:50	84.3	84.3	83.4	39	56.6	1	3	315	0.00	29.709 
17:55	84.3	84.3	83.6	40	57.3	1	5	270	0.00	29.709 
18:00	84.1	84.1	83.4	40	57.1	1	6	270	0.00	29.708 
18:05	84.0	84.0	83.3	40	57.0	1	4	248	0.00	29.708 
18:10	84.0	84.0	83.1	39	56.3	1	4	248	0.00	29.708 
18:15	84.0	84.0	83.3	40	57.0	1	3	248	0.00	29.710 
18:20	84.0	84.0	83.3	40	57.0	1	5	248	0.00	29.710 
18:25	84.0	84.0	83.3	40	57.0	1	4	270	0.00	29.710 
18:30	84.0	84.0	83.3	40	57.0	1	3	248	0.00	29.706 
18:35	84.0	84.0	83.1	39	56.3	1	5	248	0.00	29.706 
18:40	83.8	83.8	82.8	38	55.5	1	5	248	0.00	29.706 
18:45	83.6	83.6	82.8	39	56.0	1	3	248	0.00	29.698 
18:50	83.4	83.4	82.6	39	55.8	1	6	270	0.00	29.698 
18:55	83.4	83.4	82.6	39	55.8	0	3	270	0.00	29.698 
19:00	83.2	83.2	82.5	40	56.3	1	2	270	0.00	29.698 
19:05	83.2	83.2	82.4	39	55.6	1	7	270	0.00	29.698 
19:10	83.2	83.2	82.5	40	56.3	0	2	225	0.00	29.698 
19:15	82.8	82.8	82.2	40	56.0	1	5	225	0.00	29.695 
19:20	82.8	82.8	82.3	41	56.7	1	4	248	0.00	29.695 
19:25	82.6	82.6	82.2	42	57.2	0	2	248	0.00	29.695 
19:30	82.4	82.4	82.2	43	57.6	1	2	248	0.00	29.699 
19:35	82.2	82.2	82.0	43	57.4	1	4	248	0.00	29.699 
19:40	82.0	82.0	81.9	44	57.9	0	1	248	0.00	29.699 
19:45	81.8	81.8	81.6	43	57.1	1	3	315	0.00	29.698 
19:50	81.6	81.6	81.5	43	56.9	1	4	315	0.00	29.698 
19:55	81.6	81.6	81.5	43	56.9	1	3	248	0.00	29.698 
20:00	81.4	81.4	81.4	44	57.4	0	3	248	0.00	29.697 
20:05	81.2	81.2	81.2	44	57.2	1	3	270	0.00	29.697 
20:10	81.2	81.2	81.3	45	57.8	1	3	292	0.00	29.697 
20:15	81.1	81.1	81.4	46	58.3	0	1	292	0.00	29.695 
20:20	81.1	81.1	81.4	46	58.3	0	5	248	0.00	29.695 
20:25	80.7	80.7	81.0	46	58.0	0	3	270	0.00	29.695 
20:30	80.5	80.5	80.9	47	58.4	0	2	292	0.00	29.696 
20:35	80.5	80.5	80.9	47	58.4	0	2	292	0.00	29.696 
20:40	80.3	80.3	80.9	48	58.8	1	3	315	0.00	29.696 
20:45	80.1	80.1	80.8	49	59.2	0	1	315	0.00	29.696 
20:50	79.8	79.8	80.5	49	58.9	0	1	315	0.00	29.696 
20:55	79.6	79.6	80.5	50	59.3	0	1	315	0.00	29.696 
21:00	79.6	79.6	80.5	50	59.3	0	2	315	0.00	29.698 
21:05	79.2	79.2	80.1	50	58.9	0	1	315	0.00	29.698 
21:10	79.0	79.0	80.0	50	58.7	0	1	315	0.00	29.698 
21:15	78.8	78.8	79.9	51	59.1	0	1	315	0.00	29.706 
21:20	78.5	78.5	79.6	51	58.8	0	2	315	0.00	29.706 
21:25	78.5	78.5	79.7	52	59.4	0	1	315	0.00	29.706 
21:30	78.3	78.3	79.6	52	59.2	0	2	225	0.00	29.712 
21:35	78.1	78.1	79.4	52	59.0	0	2	225	0.00	29.712 
21:40	78.1	78.1	79.4	51	58.5	0	2	225	0.00	29.712 
21:45	77.9	77.9	79.2	51	58.3	0	1	225	0.00	29.714 
21:50	77.7	77.7	79.1	52	58.6	0	2	225	0.00	29.714 
21:55	77.6	77.6	79.0	52	58.6	0	3	225	0.00	29.714 
22:00	77.6	77.6	79.0	52	58.6	0	1	225	0.00	29.720 
22:05	77.4	77.4	78.9	52	58.4	0	2	225	0.00	29.720 
22:10	77.2	77.2	78.8	52	58.2	0	2	225	0.00	29.720 
22:15	77.0	77.0	78.7	53	58.5	0	1	225	0.00	29.724 
22:20	76.8	76.8	78.5	53	58.4	0	1	225	0.00	29.724 
22:25	76.7	76.7	78.5	54	58.8	0	1	225	0.00	29.724 
22:30	76.5	76.5	78.4	54	58.6	0	3	225	0.00	29.728 
22:35	76.3	76.3	78.3	55	58.9	0	1	225	0.00	29.728 
22:40	76.1	76.1	78.1	55	58.7	0	1	225	0.00	29.728 
22:45	75.8	75.8	77.9	56	59.0	0	1	225	0.00	29.740 
22:50	75.6	75.6	77.8	56	58.8	0	0	---	0.00	29.740 
22:55	75.4	75.4	77.7	57	59.1	0	0	---	0.00	29.740 
23:00	75.3	75.3	77.6	57	59.0	0	0	---	0.00	29.743 
23:05	74.9	74.9	74.9	58	59.1	0	0	---	0.00	29.743 
23:10	74.7	74.7	74.7	59	59.4	0	0	---	0.00	29.743 
23:15	74.6	74.6	74.6	59	59.3	0	2	225	0.00	29.738 
23:20	74.6	74.6	74.6	60	59.8	0	7	270	0.00	29.738 
23:25	74.6	74.6	74.6	60	59.8	0	2	270	0.00	29.738 
23:30	74.6	74.6	74.6	60	59.8	0	1	270	0.00	29.739 
23:35	74.4	74.4	74.4	61	60.1	0	1	270	0.00	29.739 
23:40	74.2	74.2	74.2	62	60.3	0	1	270	0.00	29.739 
23:45	74.0	74.0	74.0	62	60.1	0	1	270	0.00	29.739 
23:50	73.9	73.9	73.9	63	60.5	0	1	270	0.00	29.739 
23:55	73.7	73.7	73.7	63	60.3	0	1	270	0.00	29.739 

CoCoRaHS
IN-AL-39
A2 Web Hosting
Creative Commons License
GoDaddy
search engine by freefind advanced

loaded 2018-11-17 18:15:13 • last modified 2010-11-18 10:43:29
Privacy PolicyDisclaimer
• wx.awcolley.com is powered by PmWiki v.2002016 •
• all content (unless otherwise noted) © 2018 A W Colley